sensor_id;sensor_type;location;lat;lon;timestamp;P1;durP1;ratioP1;P2;durP2;ratioP2
10717;SDS011;13513;42.700;23.124;2023-02-28T00:01:17;88.00;;;13.87;;
10717;SDS011;13513;42.700;23.124;2023-02-28T00:03:47;132.73;;;20.87;;
10717;SDS011;13513;42.700;23.124;2023-02-28T00:06:18;126.30;;;17.47;;
10717;SDS011;13513;42.700;23.124;2023-02-28T00:08:50;156.17;;;17.53;;
10717;SDS011;13513;42.700;23.124;2023-02-28T00:11:21;249.63;;;17.13;;
10717;SDS011;13513;42.700;23.124;2023-02-28T00:13:51;292.50;;;15.90;;
10717;SDS011;13513;42.700;23.124;2023-02-28T00:16:22;215.83;;;12.90;;
10717;SDS011;13513;42.700;23.124;2023-02-28T00:18:54;359.97;;;15.00;;
10717;SDS011;13513;42.700;23.124;2023-02-28T00:21:25;276.43;;;12.07;;
10717;SDS011;13513;42.700;23.124;2023-02-28T00:23:55;114.10;;;10.63;;
10717;SDS011;13513;42.700;23.124;2023-02-28T00:26:26;172.10;;;9.97;;
10717;SDS011;13513;42.700;23.124;2023-02-28T00:28:57;44.77;;;7.73;;
10717;SDS011;13513;42.700;23.124;2023-02-28T00:31:28;28.97;;;6.67;;
10717;SDS011;13513;42.700;23.124;2023-02-28T00:33:58;16.17;;;6.20;;
10717;SDS011;13513;42.700;23.124;2023-02-28T00:36:29;37.33;;;6.50;;
10717;SDS011;13513;42.700;23.124;2023-02-28T00:38:59;9.80;;;6.20;;
10717;SDS011;13513;42.700;23.124;2023-02-28T00:41:30;9.90;;;6.40;;
10717;SDS011;13513;42.700;23.124;2023-02-28T00:44:01;7.40;;;6.13;;
10717;SDS011;13513;42.700;23.124;2023-02-28T00:46:32;9.50;;;5.70;;
10717;SDS011;13513;42.700;23.124;2023-02-28T00:49:03;6.20;;;4.50;;
10717;SDS011;13513;42.700;23.124;2023-02-28T00:51:34;7.83;;;5.60;;
10717;SDS011;13513;42.700;23.124;2023-02-28T00:54:05;8.60;;;6.47;;
10717;SDS011;13513;42.700;23.124;2023-02-28T00:56:36;12.13;;;6.00;;
10717;SDS011;13513;42.700;23.124;2023-02-28T00:59:05;7.23;;;5.30;;
10717;SDS011;13513;42.700;23.124;2023-02-28T01:01:36;19.87;;;5.67;;
10717;SDS011;13513;42.700;23.124;2023-02-28T01:04:06;7.97;;;5.53;;
10717;SDS011;13513;42.700;23.124;2023-02-28T01:06:38;8.83;;;6.00;;
10717;SDS011;13513;42.700;23.124;2023-02-28T01:09:09;8.20;;;6.33;;
10717;SDS011;13513;42.700;23.124;2023-02-28T01:11:41;7.47;;;5.57;;
10717;SDS011;13513;42.700;23.124;2023-02-28T01:14:13;8.60;;;4.47;;
10717;SDS011;13513;42.700;23.124;2023-02-28T01:16:45;7.13;;;5.50;;
10717;SDS011;13513;42.700;23.124;2023-02-28T01:19:16;7.67;;;5.67;;
10717;SDS011;13513;42.700;23.124;2023-02-28T01:21:47;12.47;;;7.23;;
10717;SDS011;13513;42.700;23.124;2023-02-28T01:24:17;14.10;;;7.77;;
10717;SDS011;13513;42.700;23.124;2023-02-28T01:26:48;21.77;;;7.83;;
10717;SDS011;13513;42.700;23.124;2023-02-28T01:29:19;15.27;;;7.50;;
10717;SDS011;13513;42.700;23.124;2023-02-28T01:31:49;53.63;;;10.73;;
10717;SDS011;13513;42.700;23.124;2023-02-28T01:34:20;110.33;;;15.60;;
10717;SDS011;13513;42.700;23.124;2023-02-28T01:36:50;99.43;;;18.17;;
10717;SDS011;13513;42.700;23.124;2023-02-28T01:39:21;67.47;;;15.53;;
10717;SDS011;13513;42.700;23.124;2023-02-28T01:41:52;87.63;;;24.17;;
10717;SDS011;13513;42.700;23.124;2023-02-28T01:47:32;126.93;;;15.30;;
10717;SDS011;13513;42.700;23.124;2023-02-28T01:50:04;137.67;;;15.40;;
10717;SDS011;13513;42.700;23.124;2023-02-28T01:52:34;369.47;;;19.07;;
10717;SDS011;13513;42.700;23.124;2023-02-28T01:55:05;157.43;;;14.07;;
10717;SDS011;13513;42.700;23.124;2023-02-28T01:57:43;260.63;;;16.70;;
10717;SDS011;13513;42.700;23.124;2023-02-28T02:00:16;278.13;;;14.73;;
10717;SDS011;13513;42.700;23.124;2023-02-28T02:02:48;422.57;;;17.87;;
10717;SDS011;13513;42.700;23.124;2023-02-28T02:05:20;213.70;;;14.53;;
10717;SDS011;13513;42.700;23.124;2023-02-28T02:07:56;241.63;;;14.43;;
10717;SDS011;13513;42.700;23.124;2023-02-28T02:10:31;170.87;;;13.10;;
10717;SDS011;13513;42.700;23.124;2023-02-28T02:15:52;210.27;;;16.43;;
10717;SDS011;13513;42.700;23.124;2023-02-28T02:21:16;223.93;;;14.13;;
10717;SDS011;13513;42.700;23.124;2023-02-28T02:35:12;274.60;;;17.57;;
10717;SDS011;13513;42.700;23.124;2023-02-28T02:37:51;227.97;;;15.43;;
10717;SDS011;13513;42.700;23.124;2023-02-28T02:40:23;186.07;;;15.43;;
10717;SDS011;13513;42.700;23.124;2023-02-28T02:43:08;148.50;;;11.83;;
10717;SDS011;13513;42.700;23.124;2023-02-28T02:45:43;213.77;;;15.33;;
10717;SDS011;13513;42.700;23.124;2023-02-28T02:48:16;222.17;;;15.20;;
10717;SDS011;13513;42.700;23.124;2023-02-28T02:50:49;248.90;;;15.27;;
10717;SDS011;13513;42.700;23.124;2023-02-28T02:53:21;199.00;;;14.10;;
10717;SDS011;13513;42.700;23.124;2023-02-28T02:55:52;206.50;;;15.93;;
10717;SDS011;13513;42.700;23.124;2023-02-28T02:58:25;179.87;;;12.83;;
10717;SDS011;13513;42.700;23.124;2023-02-28T03:00:57;173.77;;;11.87;;
10717;SDS011;13513;42.700;23.124;2023-02-28T03:03:28;152.20;;;11.10;;
10717;SDS011;13513;42.700;23.124;2023-02-28T03:06:01;98.50;;;10.53;;
10717;SDS011;13513;42.700;23.124;2023-02-28T03:08:36;62.07;;;9.23;;
10717;SDS011;13513;42.700;23.124;2023-02-28T03:11:12;65.33;;;8.83;;
10717;SDS011;13513;42.700;23.124;2023-02-28T03:19:59;66.50;;;8.47;;
10717;SDS011;13513;42.700;23.124;2023-02-28T03:25:31;98.03;;;9.10;;
10717;SDS011;13513;42.700;23.124;2023-02-28T03:28:22;55.70;;;9.47;;
10717;SDS011;13513;42.700;23.124;2023-02-28T03:33:51;60.10;;;8.07;;
10717;SDS011;13513;42.700;23.124;2023-02-28T03:36:42;75.50;;;9.37;;
10717;SDS011;13513;42.700;23.124;2023-02-28T03:39:21;59.83;;;7.93;;
10717;SDS011;13513;42.700;23.124;2023-02-28T03:41:49;60.77;;;7.83;;
10717;SDS011;13513;42.700;23.124;2023-02-28T03:44:35;63.97;;;8.57;;
10717;SDS011;13513;42.700;23.124;2023-02-28T03:47:14;72.03;;;8.47;;
10717;SDS011;13513;42.700;23.124;2023-02-28T03:49:46;45.03;;;8.20;;
10717;SDS011;13513;42.700;23.124;2023-02-28T03:52:27;77.57;;;8.77;;
10717;SDS011;13513;42.700;23.124;2023-02-28T03:55:01;25.50;;;6.93;;
10717;SDS011;13513;42.700;23.124;2023-02-28T03:57:33;32.07;;;7.30;;
10717;SDS011;13513;42.700;23.124;2023-02-28T04:00:13;33.17;;;7.73;;
10717;SDS011;13513;42.700;23.124;2023-02-28T04:02:45;48.40;;;8.13;;
10717;SDS011;13513;42.700;23.124;2023-02-28T04:05:16;56.13;;;7.10;;
10717;SDS011;13513;42.700;23.124;2023-02-28T04:07:48;43.63;;;9.27;;
10717;SDS011;13513;42.700;23.124;2023-02-28T04:10:19;73.00;;;8.83;;
10717;SDS011;13513;42.700;23.124;2023-02-28T04:12:50;71.33;;;8.63;;
10717;SDS011;13513;42.700;23.124;2023-02-28T04:15:21;95.67;;;9.57;;
10717;SDS011;13513;42.700;23.124;2023-02-28T04:17:52;151.33;;;11.47;;
10717;SDS011;13513;42.700;23.124;2023-02-28T04:20:22;171.33;;;10.27;;
10717;SDS011;13513;42.700;23.124;2023-02-28T04:22:54;327.63;;;15.40;;
10717;SDS011;13513;42.700;23.124;2023-02-28T04:25:25;239.53;;;12.87;;
10717;SDS011;13513;42.700;23.124;2023-02-28T04:27:56;131.97;;;11.17;;
10717;SDS011;13513;42.700;23.124;2023-02-28T04:30:27;274.97;;;15.70;;
10717;SDS011;13513;42.700;23.124;2023-02-28T04:32:58;152.87;;;13.27;;
10717;SDS011;13513;42.700;23.124;2023-02-28T04:35:29;275.27;;;13.80;;
10717;SDS011;13513;42.700;23.124;2023-02-28T04:38:00;291.43;;;15.10;;
10717;SDS011;13513;42.700;23.124;2023-02-28T04:40:31;275.40;;;16.00;;
10717;SDS011;13513;42.700;23.124;2023-02-28T04:43:02;185.20;;;13.97;;
10717;SDS011;13513;42.700;23.124;2023-02-28T04:45:34;144.27;;;12.47;;
10717;SDS011;13513;42.700;23.124;2023-02-28T04:48:05;204.17;;;12.87;;
10717;SDS011;13513;42.700;23.124;2023-02-28T04:50:36;203.43;;;12.83;;
10717;SDS011;13513;42.700;23.124;2023-02-28T04:53:06;257.47;;;16.00;;
10717;SDS011;13513;42.700;23.124;2023-02-28T04:55:37;217.00;;;14.30;;
10717;SDS011;13513;42.700;23.124;2023-02-28T04:58:07;199.83;;;13.57;;
10717;SDS011;13513;42.700;23.124;2023-02-28T05:00:37;473.70;;;18.67;;
10717;SDS011;13513;42.700;23.124;2023-02-28T05:03:08;317.00;;;16.63;;
10717;SDS011;13513;42.700;23.124;2023-02-28T05:05:39;253.73;;;15.97;;
10717;SDS011;13513;42.700;23.124;2023-02-28T05:08:10;125.33;;;14.40;;
10717;SDS011;13513;42.700;23.124;2023-02-28T05:10:40;482.27;;;21.83;;
10717;SDS011;13513;42.700;23.124;2023-02-28T05:13:13;336.00;;;19.00;;
10717;SDS011;13513;42.700;23.124;2023-02-28T05:15:44;434.77;;;18.87;;
10717;SDS011;13513;42.700;23.124;2023-02-28T05:18:15;376.07;;;21.70;;
10717;SDS011;13513;42.700;23.124;2023-02-28T05:20:46;152.40;;;12.83;;
10717;SDS011;13513;42.700;23.124;2023-02-28T05:23:18;240.30;;;15.47;;
10717;SDS011;13513;42.700;23.124;2023-02-28T05:25:51;134.60;;;12.90;;
10717;SDS011;13513;42.700;23.124;2023-02-28T05:28:22;164.50;;;11.33;;
10717;SDS011;13513;42.700;23.124;2023-02-28T05:30:51;159.97;;;11.23;;
10717;SDS011;13513;42.700;23.124;2023-02-28T05:33:26;358.63;;;17.30;;
10717;SDS011;13513;42.700;23.124;2023-02-28T05:35:57;367.97;;;16.73;;
10717;SDS011;13513;42.700;23.124;2023-02-28T05:38:28;238.97;;;13.83;;
10717;SDS011;13513;42.700;23.124;2023-02-28T05:41:05;247.63;;;12.47;;
10717;SDS011;13513;42.700;23.124;2023-02-28T05:43:37;311.70;;;12.67;;
10717;SDS011;13513;42.700;23.124;2023-02-28T05:46:08;275.60;;;14.90;;
10717;SDS011;13513;42.700;23.124;2023-02-28T05:48:40;229.90;;;13.93;;
10717;SDS011;13513;42.700;23.124;2023-02-28T05:51:12;262.53;;;12.40;;
10717;SDS011;13513;42.700;23.124;2023-02-28T05:53:43;344.03;;;17.20;;
10717;SDS011;13513;42.700;23.124;2023-02-28T05:56:12;328.27;;;19.27;;
10717;SDS011;13513;42.700;23.124;2023-02-28T05:58:43;343.83;;;23.33;;
10717;SDS011;13513;42.700;23.124;2023-02-28T06:01:21;270.07;;;18.27;;
10717;SDS011;13513;42.700;23.124;2023-02-28T06:04:10;459.57;;;38.57;;
10717;SDS011;13513;42.700;23.124;2023-02-28T06:06:41;388.53;;;16.67;;
10717;SDS011;13513;42.700;23.124;2023-02-28T06:09:16;330.03;;;14.93;;
10717;SDS011;13513;42.700;23.124;2023-02-28T06:11:47;304.57;;;14.53;;
10717;SDS011;13513;42.700;23.124;2023-02-28T06:14:18;385.23;;;18.93;;
10717;SDS011;13513;42.700;23.124;2023-02-28T06:16:49;247.47;;;14.20;;
10717;SDS011;13513;42.700;23.124;2023-02-28T06:19:25;291.43;;;17.10;;
10717;SDS011;13513;42.700;23.124;2023-02-28T06:21:59;227.00;;;15.10;;
10717;SDS011;13513;42.700;23.124;2023-02-28T06:24:30;441.10;;;22.97;;
10717;SDS011;13513;42.700;23.124;2023-02-28T06:27:00;274.83;;;13.63;;
10717;SDS011;13513;42.700;23.124;2023-02-28T06:29:33;324.73;;;15.97;;
10717;SDS011;13513;42.700;23.124;2023-02-28T06:32:05;457.97;;;18.07;;
10717;SDS011;13513;42.700;23.124;2023-02-28T06:34:35;316.67;;;17.27;;
10717;SDS011;13513;42.700;23.124;2023-02-28T06:37:05;360.87;;;17.67;;
10717;SDS011;13513;42.700;23.124;2023-02-28T06:39:36;308.87;;;20.50;;
10717;SDS011;13513;42.700;23.124;2023-02-28T06:42:06;306.53;;;20.43;;
10717;SDS011;13513;42.700;23.124;2023-02-28T06:44:36;340.73;;;26.80;;
10717;SDS011;13513;42.700;23.124;2023-02-28T06:47:09;243.37;;;32.77;;
10717;SDS011;13513;42.700;23.124;2023-02-28T06:49:40;512.30;;;50.63;;
10717;SDS011;13513;42.700;23.124;2023-02-28T06:52:11;646.70;;;56.80;;
10717;SDS011;13513;42.700;23.124;2023-02-28T06:54:42;563.40;;;42.63;;
10717;SDS011;13513;42.700;23.124;2023-02-28T06:57:13;323.10;;;22.43;;
10717;SDS011;13513;42.700;23.124;2023-02-28T06:59:44;206.40;;;22.93;;
10717;SDS011;13513;42.700;23.124;2023-02-28T07:02:15;678.07;;;31.67;;
10717;SDS011;13513;42.700;23.124;2023-02-28T07:04:45;340.57;;;24.17;;
10717;SDS011;13513;42.700;23.124;2023-02-28T07:07:16;403.40;;;24.47;;
10717;SDS011;13513;42.700;23.124;2023-02-28T07:09:48;220.20;;;22.60;;
10717;SDS011;13513;42.700;23.124;2023-02-28T07:12:18;251.67;;;25.17;;
10717;SDS011;13513;42.700;23.124;2023-02-28T07:14:49;407.67;;;23.17;;
10717;SDS011;13513;42.700;23.124;2023-02-28T07:17:19;247.87;;;23.07;;
10717;SDS011;13513;42.700;23.124;2023-02-28T07:19:50;408.27;;;25.10;;
10717;SDS011;13513;42.700;23.124;2023-02-28T07:22:21;357.50;;;24.27;;
10717;SDS011;13513;42.700;23.124;2023-02-28T07:24:51;371.23;;;25.23;;
10717;SDS011;13513;42.700;23.124;2023-02-28T07:27:22;144.87;;;20.80;;
10717;SDS011;13513;42.700;23.124;2023-02-28T07:29:53;233.23;;;26.40;;
10717;SDS011;13513;42.700;23.124;2023-02-28T07:32:24;315.47;;;25.40;;
10717;SDS011;13513;42.700;23.124;2023-02-28T07:34:55;380.67;;;27.00;;
10717;SDS011;13513;42.700;23.124;2023-02-28T07:37:26;162.00;;;29.17;;
10717;SDS011;13513;42.700;23.124;2023-02-28T07:39:57;327.67;;;22.30;;
10717;SDS011;13513;42.700;23.124;2023-02-28T07:42:28;217.17;;;19.10;;
10717;SDS011;13513;42.700;23.124;2023-02-28T07:44:58;445.03;;;25.03;;
10717;SDS011;13513;42.700;23.124;2023-02-28T07:47:30;377.53;;;27.03;;
10717;SDS011;13513;42.700;23.124;2023-02-28T07:50:01;404.53;;;28.57;;
10717;SDS011;13513;42.700;23.124;2023-02-28T07:52:32;228.20;;;23.60;;
10717;SDS011;13513;42.700;23.124;2023-02-28T07:55:02;170.03;;;19.77;;
10717;SDS011;13513;42.700;23.124;2023-02-28T07:57:33;291.93;;;23.57;;
10717;SDS011;13513;42.700;23.124;2023-02-28T08:00:05;487.27;;;27.27;;
10717;SDS011;13513;42.700;23.124;2023-02-28T08:02:37;219.77;;;21.07;;
10717;SDS011;13513;42.700;23.124;2023-02-28T08:05:08;181.27;;;18.27;;
10717;SDS011;13513;42.700;23.124;2023-02-28T08:07:40;180.50;;;22.70;;
10717;SDS011;13513;42.700;23.124;2023-02-28T08:10:11;580.83;;;31.47;;
10717;SDS011;13513;42.700;23.124;2023-02-28T08:12:41;131.27;;;24.03;;
10717;SDS011;13513;42.700;23.124;2023-02-28T08:15:12;111.73;;;22.57;;
10717;SDS011;13513;42.700;23.124;2023-02-28T08:17:43;151.20;;;23.63;;
10717;SDS011;13513;42.700;23.124;2023-02-28T08:20:14;313.00;;;25.33;;
10717;SDS011;13513;42.700;23.124;2023-02-28T08:22:44;212.13;;;26.10;;
10717;SDS011;13513;42.700;23.124;2023-02-28T08:25:15;262.40;;;31.93;;
10717;SDS011;13513;42.700;23.124;2023-02-28T08:27:46;351.73;;;27.37;;
10717;SDS011;13513;42.700;23.124;2023-02-28T08:30:18;217.83;;;26.80;;
10717;SDS011;13513;42.700;23.124;2023-02-28T08:32:51;287.47;;;31.57;;
10717;SDS011;13513;42.700;23.124;2023-02-28T08:35:22;147.37;;;31.97;;
10717;SDS011;13513;42.700;23.124;2023-02-28T08:37:53;158.33;;;64.13;;
10717;SDS011;13513;42.700;23.124;2023-02-28T08:40:24;229.77;;;27.00;;
10717;SDS011;13513;42.700;23.124;2023-02-28T08:42:55;155.93;;;25.00;;
10717;SDS011;13513;42.700;23.124;2023-02-28T08:45:26;178.87;;;29.73;;
10717;SDS011;13513;42.700;23.124;2023-02-28T08:47:56;159.77;;;28.27;;
10717;SDS011;13513;42.700;23.124;2023-02-28T08:50:27;95.70;;;26.97;;
10717;SDS011;13513;42.700;23.124;2023-02-28T08:52:57;151.13;;;26.13;;
10717;SDS011;13513;42.700;23.124;2023-02-28T08:55:28;95.83;;;28.80;;
10717;SDS011;13513;42.700;23.124;2023-02-28T08:57:59;74.73;;;26.90;;
10717;SDS011;13513;42.700;23.124;2023-02-28T09:00:30;148.47;;;29.87;;
10717;SDS011;13513;42.700;23.124;2023-02-28T09:03:01;70.93;;;29.50;;
10717;SDS011;13513;42.700;23.124;2023-02-28T09:05:31;90.33;;;29.77;;
10717;SDS011;13513;42.700;23.124;2023-02-28T09:08:03;156.50;;;27.40;;
10717;SDS011;13513;42.700;23.124;2023-02-28T09:10:34;100.13;;;30.07;;
10717;SDS011;13513;42.700;23.124;2023-02-28T09:13:04;101.63;;;28.00;;
10717;SDS011;13513;42.700;23.124;2023-02-28T09:15:39;80.13;;;28.10;;
10717;SDS011;13513;42.700;23.124;2023-02-28T09:18:09;112.10;;;27.53;;
10717;SDS011;13513;42.700;23.124;2023-02-28T09:20:40;88.97;;;26.80;;
10717;SDS011;13513;42.700;23.124;2023-02-28T09:23:12;237.07;;;29.17;;
10717;SDS011;13513;42.700;23.124;2023-02-28T09:25:53;135.73;;;27.63;;
10717;SDS011;13513;42.700;23.124;2023-02-28T09:28:23;96.60;;;26.07;;
10717;SDS011;13513;42.700;23.124;2023-02-28T09:30:53;82.37;;;25.70;;
10717;SDS011;13513;42.700;23.124;2023-02-28T09:33:23;102.10;;;29.17;;
10717;SDS011;13513;42.700;23.124;2023-02-28T09:35:58;185.37;;;31.77;;
10717;SDS011;13513;42.700;23.124;2023-02-28T09:38:30;83.23;;;26.70;;
10717;SDS011;13513;42.700;23.124;2023-02-28T09:41:04;66.13;;;28.57;;
10717;SDS011;13513;42.700;23.124;2023-02-28T09:43:36;81.47;;;27.53;;
10717;SDS011;13513;42.700;23.124;2023-02-28T09:46:27;189.00;;;28.23;;
10717;SDS011;13513;42.700;23.124;2023-02-28T09:49:14;105.60;;;29.43;;
10717;SDS011;13513;42.700;23.124;2023-02-28T09:54:28;82.13;;;29.73;;
10717;SDS011;13513;42.700;23.124;2023-02-28T09:57:06;81.00;;;31.63;;
10717;SDS011;13513;42.700;23.124;2023-02-28T10:05:20;105.37;;;32.13;;
10717;SDS011;13513;42.700;23.124;2023-02-28T10:16:01;93.30;;;30.77;;
10717;SDS011;13513;42.700;23.124;2023-02-28T10:18:35;101.13;;;31.87;;
10717;SDS011;13513;42.700;23.124;2023-02-28T10:21:06;72.13;;;31.47;;
10717;SDS011;13513;42.700;23.124;2023-02-28T10:23:38;73.03;;;36.40;;
10717;SDS011;13513;42.700;23.124;2023-02-28T10:26:11;73.37;;;40.67;;
10717;SDS011;13513;42.700;23.124;2023-02-28T10:28:41;64.23;;;33.90;;
10717;SDS011;13513;42.700;23.124;2023-02-28T10:31:17;71.73;;;36.47;;
10717;SDS011;13513;42.700;23.124;2023-02-28T10:33:48;69.70;;;35.03;;
10717;SDS011;13513;42.700;23.124;2023-02-28T10:36:19;70.77;;;32.47;;
10717;SDS011;13513;42.700;23.124;2023-02-28T10:38:52;64.03;;;34.37;;
10717;SDS011;13513;42.700;23.124;2023-02-28T10:41:26;63.27;;;32.50;;
10717;SDS011;13513;42.700;23.124;2023-02-28T10:44:12;54.87;;;29.10;;
10717;SDS011;13513;42.700;23.124;2023-02-28T10:46:50;64.03;;;33.70;;
10717;SDS011;13513;42.700;23.124;2023-02-28T10:49:25;59.60;;;32.23;;
10717;SDS011;13513;42.700;23.124;2023-02-28T10:52:01;72.87;;;37.77;;
10717;SDS011;13513;42.700;23.124;2023-02-28T10:54:31;68.03;;;37.97;;
10717;SDS011;13513;42.700;23.124;2023-02-28T10:57:36;64.63;;;35.63;;
10717;SDS011;13513;42.700;23.124;2023-02-28T10:59:51;61.97;;;35.93;;
10717;SDS011;13513;42.700;23.124;2023-02-28T11:02:35;62.90;;;31.97;;
10717;SDS011;13513;42.700;23.124;2023-02-28T11:05:41;54.43;;;30.37;;
10717;SDS011;13513;42.700;23.124;2023-02-28T11:08:10;53.27;;;30.07;;
10717;SDS011;13513;42.700;23.124;2023-02-28T11:11:03;53.17;;;29.80;;
10717;SDS011;13513;42.700;23.124;2023-02-28T11:13:19;45.97;;;27.87;;
10717;SDS011;13513;42.700;23.124;2023-02-28T11:15:54;47.93;;;26.63;;
10717;SDS011;13513;42.700;23.124;2023-02-28T11:21:25;45.67;;;26.10;;
10717;SDS011;13513;42.700;23.124;2023-02-28T11:24:05;46.93;;;26.67;;
10717;SDS011;13513;42.700;23.124;2023-02-28T11:26:49;50.10;;;28.00;;
10717;SDS011;13513;42.700;23.124;2023-02-28T11:29:21;46.77;;;26.30;;
10717;SDS011;13513;42.700;23.124;2023-02-28T11:32:11;41.40;;;23.37;;
10717;SDS011;13513;42.700;23.124;2023-02-28T11:34:39;45.23;;;27.33;;
10717;SDS011;13513;42.700;23.124;2023-02-28T11:37:19;62.37;;;37.77;;
10717;SDS011;13513;42.700;23.124;2023-02-28T11:39:44;51.93;;;29.17;;
10717;SDS011;13513;42.700;23.124;2023-02-28T11:42:23;46.33;;;28.97;;
10717;SDS011;13513;42.700;23.124;2023-02-28T11:53:32;37.50;;;21.73;;
10717;SDS011;13513;42.700;23.124;2023-02-28T11:56:05;34.97;;;22.13;;
10717;SDS011;13513;42.700;23.124;2023-02-28T12:04:12;34.73;;;20.93;;
10717;SDS011;13513;42.700;23.124;2023-02-28T12:07:00;38.47;;;21.10;;
10717;SDS011;13513;42.700;23.124;2023-02-28T12:18:17;23.57;;;13.60;;
10717;SDS011;13513;42.700;23.124;2023-02-28T12:26:19;29.07;;;13.37;;
10717;SDS011;13513;42.700;23.124;2023-02-28T12:31:52;29.17;;;12.80;;
10717;SDS011;13513;42.700;23.124;2023-02-28T12:34:26;26.80;;;12.07;;
10717;SDS011;13513;42.700;23.124;2023-02-28T12:37:04;29.40;;;13.17;;
10717;SDS011;13513;42.700;23.124;2023-02-28T12:39:40;23.07;;;11.43;;
10717;SDS011;13513;42.700;23.124;2023-02-28T12:42:11;24.03;;;12.20;;
10717;SDS011;13513;42.700;23.124;2023-02-28T12:44:44;23.37;;;12.83;;
10717;SDS011;13513;42.700;23.124;2023-02-28T12:47:16;26.10;;;12.73;;
10717;SDS011;13513;42.700;23.124;2023-02-28T12:52:39;37.67;;;18.40;;
10717;SDS011;13513;42.700;23.124;2023-02-28T13:04:14;24.83;;;12.80;;
10717;SDS011;13513;42.700;23.124;2023-02-28T13:09:38;23.30;;;11.93;;
10717;SDS011;13513;42.700;23.124;2023-02-28T13:12:14;20.60;;;11.47;;
10717;SDS011;13513;42.700;23.124;2023-02-28T13:14:46;23.07;;;12.60;;
10717;SDS011;13513;42.700;23.124;2023-02-28T13:17:18;20.53;;;10.73;;
10717;SDS011;13513;42.700;23.124;2023-02-28T13:19:57;17.93;;;10.77;;
10717;SDS011;13513;42.700;23.124;2023-02-28T13:22:37;25.80;;;11.27;;
10717;SDS011;13513;42.700;23.124;2023-02-28T13:27:57;24.20;;;12.33;;
10717;SDS011;13513;42.700;23.124;2023-02-28T13:33:29;21.47;;;12.23;;
10717;SDS011;13513;42.700;23.124;2023-02-28T13:36:26;20.83;;;10.47;;
10717;SDS011;13513;42.700;23.124;2023-02-28T13:38:51;16.60;;;8.20;;
10717;SDS011;13513;42.700;23.124;2023-02-28T13:44:18;21.07;;;8.50;;
10717;SDS011;13513;42.700;23.124;2023-02-28T13:49:31;15.77;;;8.30;;
10717;SDS011;13513;42.700;23.124;2023-02-28T13:52:09;19.40;;;9.30;;
10717;SDS011;13513;42.700;23.124;2023-02-28T13:54:44;16.97;;;8.77;;
10717;SDS011;13513;42.700;23.124;2023-02-28T14:05:42;16.40;;;9.33;;
10717;SDS011;13513;42.700;23.124;2023-02-28T14:08:18;26.20;;;9.97;;
10717;SDS011;13513;42.700;23.124;2023-02-28T14:10:50;17.70;;;8.73;;
10717;SDS011;13513;42.700;23.124;2023-02-28T14:13:41;17.43;;;9.57;;
10717;SDS011;13513;42.700;23.124;2023-02-28T14:16:16;15.27;;;7.50;;
10717;SDS011;13513;42.700;23.124;2023-02-28T14:19:31;21.40;;;10.90;;
10717;SDS011;13513;42.700;23.124;2023-02-28T14:21:30;20.27;;;9.50;;
10717;SDS011;13513;42.700;23.124;2023-02-28T14:32:48;16.43;;;8.97;;
10717;SDS011;13513;42.700;23.124;2023-02-28T14:38:41;24.57;;;10.10;;
10717;SDS011;13513;42.700;23.124;2023-02-28T14:41:21;22.53;;;8.67;;
10717;SDS011;13513;42.700;23.124;2023-02-28T14:43:54;24.53;;;9.47;;
10717;SDS011;13513;42.700;23.124;2023-02-28T14:46:27;17.90;;;8.50;;
10717;SDS011;13513;42.700;23.124;2023-02-28T14:48:58;20.20;;;8.90;;
10717;SDS011;13513;42.700;23.124;2023-02-28T14:51:29;24.60;;;9.93;;
10717;SDS011;13513;42.700;23.124;2023-02-28T14:54:00;22.60;;;8.47;;
10717;SDS011;13513;42.700;23.124;2023-02-28T14:56:35;19.10;;;8.60;;
10717;SDS011;13513;42.700;23.124;2023-02-28T14:59:26;20.37;;;8.80;;
10717;SDS011;13513;42.700;23.124;2023-02-28T15:04:54;18.57;;;9.13;;
10717;SDS011;13513;42.700;23.124;2023-02-28T15:07:26;18.20;;;9.43;;
10717;SDS011;13513;42.700;23.124;2023-02-28T15:12:51;16.97;;;7.27;;
10717;SDS011;13513;42.700;23.124;2023-02-28T15:15:27;24.57;;;9.37;;
10717;SDS011;13513;42.700;23.124;2023-02-28T15:17:57;17.03;;;9.10;;
10717;SDS011;13513;42.700;23.124;2023-02-28T15:20:31;13.77;;;7.60;;
10717;SDS011;13513;42.700;23.124;2023-02-28T15:23:06;16.80;;;6.10;;
10717;SDS011;13513;42.700;23.124;2023-02-28T15:25:38;18.57;;;8.23;;
10717;SDS011;13513;42.700;23.124;2023-02-28T15:28:18;20.27;;;8.43;;
10717;SDS011;13513;42.700;23.124;2023-02-28T15:30:51;16.87;;;7.57;;
10717;SDS011;13513;42.700;23.124;2023-02-28T15:33:30;17.30;;;7.70;;
10717;SDS011;13513;42.700;23.124;2023-02-28T15:36:05;17.70;;;7.77;;
10717;SDS011;13513;42.700;23.124;2023-02-28T15:38:36;20.23;;;8.10;;
10717;SDS011;13513;42.700;23.124;2023-02-28T15:41:21;19.43;;;8.90;;
10717;SDS011;13513;42.700;23.124;2023-02-28T15:43:40;18.17;;;8.77;;
10717;SDS011;13513;42.700;23.124;2023-02-28T15:46:12;15.60;;;7.93;;
10717;SDS011;13513;42.700;23.124;2023-02-28T15:48:43;21.33;;;8.80;;
10717;SDS011;13513;42.700;23.124;2023-02-28T15:51:24;22.67;;;10.57;;
10717;SDS011;13513;42.700;23.124;2023-02-28T15:54:04;20.77;;;10.70;;
10717;SDS011;13513;42.700;23.124;2023-02-28T15:56:40;17.37;;;9.97;;
10717;SDS011;13513;42.700;23.124;2023-02-28T15:59:18;16.50;;;10.20;;
10717;SDS011;13513;42.700;23.124;2023-02-28T16:02:02;14.60;;;8.70;;
10717;SDS011;13513;42.700;23.124;2023-02-28T16:04:21;18.97;;;10.20;;
10717;SDS011;13513;42.700;23.124;2023-02-28T16:09:34;14.83;;;10.00;;
10717;SDS011;13513;42.700;23.124;2023-02-28T16:12:04;15.70;;;9.57;;
10717;SDS011;13513;42.700;23.124;2023-02-28T16:14:36;15.47;;;9.20;;
10717;SDS011;13513;42.700;23.124;2023-02-28T16:17:16;17.93;;;9.07;;
10717;SDS011;13513;42.700;23.124;2023-02-28T16:19:42;16.30;;;9.17;;
10717;SDS011;13513;42.700;23.124;2023-02-28T16:22:13;15.57;;;9.50;;
10717;SDS011;13513;42.700;23.124;2023-02-28T16:24:43;12.33;;;7.97;;
10717;SDS011;13513;42.700;23.124;2023-02-28T16:27:21;14.33;;;8.43;;
10717;SDS011;13513;42.700;23.124;2023-02-28T16:30:00;17.50;;;8.90;;
10717;SDS011;13513;42.700;23.124;2023-02-28T16:32:31;21.87;;;12.47;;
10717;SDS011;13513;42.700;23.124;2023-02-28T16:35:05;19.67;;;15.70;;
10717;SDS011;13513;42.700;23.124;2023-02-28T16:37:37;14.23;;;8.80;;
10717;SDS011;13513;42.700;23.124;2023-02-28T16:40:15;19.03;;;9.20;;
10717;SDS011;13513;42.700;23.124;2023-02-28T16:42:46;26.40;;;14.37;;
10717;SDS011;13513;42.700;23.124;2023-02-28T16:45:22;14.97;;;7.37;;
10717;SDS011;13513;42.700;23.124;2023-02-28T16:47:54;11.30;;;8.13;;
10717;SDS011;13513;42.700;23.124;2023-02-28T16:50:25;12.47;;;7.07;;
10717;SDS011;13513;42.700;23.124;2023-02-28T16:52:59;13.53;;;6.83;;
10717;SDS011;13513;42.700;23.124;2023-02-28T16:55:30;11.77;;;7.80;;
10717;SDS011;13513;42.700;23.124;2023-02-28T16:58:05;16.97;;;8.33;;
10717;SDS011;13513;42.700;23.124;2023-02-28T17:00:35;13.87;;;7.97;;